Time;durP1;ratioP1;P1;durP2;ratioP2;P2;SDS_P1;SDS_P2;PMS_P1;PMS_P2;Temp;Humidity;BMP_temperature;BMP_pressure;BME280_temperature;BME280_humidity;BME280_pressure;Samples;Min_cycle;Max_cycle;Signal;HPM_P1;HPM_P2
2022/09/12 00:00:31;;;;;;;;;;;;;;;;;;5045375;28;19908;-57
2022/09/12 00:02:58;;;;;;;;;;;;;;;;;;5045149;28;19911;-57
2022/09/12 00:05:24;;;;;;;;;;;;;;;;;;5045199;28;19962;-57
2022/09/12 00:07:50;;;;;;;;;;;;;;;;;;5045254;28;19912;-58
2022/09/12 00:10:17;;;;;;;;;;;;;;;;;;5045162;28;19905;-57
2022/09/12 00:12:44;;;;;;;;;;;;;;;;;;5045178;28;20012;-57
2022/09/12 00:15:10;;;;;;;;;;;;;;;;;;5045268;28;20331;-58
2022/09/12 00:17:37;;;;;;;;;;;;;;;;;;5044585;28;20214;-57
2022/09/12 00:20:03;;;;;;;;;;;;;;;;;;5045587;28;19970;-57
2022/09/12 00:22:29;;;;;;;;;;;;;;;;;;5045252;28;20003;-57
2022/09/12 00:24:55;;;;;;;;;;;;;;;;;;5044942;28;20003;-58
2022/09/12 00:27:21;;;;;;;;;;;;;;;;;;5045327;28;19912;-57
2022/09/12 00:29:48;;;;;;;;;;;;;;;;;;5026735;28;19908;-57
2022/09/12 00:32:14;;;;;;;;;;;;;;;;;;5045041;28;19909;-58
2022/09/12 00:34:40;;;;;;;;;;;;;;;;;;5044716;28;20402;-57
2022/09/12 00:37:06;;;;;;;;;;;;;;;;;;5045671;28;19996;-57
2022/09/12 00:39:32;;;;;;;;;;;;;;;;;;5044904;28;19997;-58
2022/09/12 00:41:58;;;;;;;;;;;;;;;;;;5044693;28;20015;-58
2022/09/12 00:44:23;;;;;;;;;;;;;;;;;;5044956;28;19913;-58
2022/09/12 00:46:49;;;;;;;;;;;;;;;;;;5044719;28;19917;-58
2022/09/12 00:49:15;;;;;;;;;;;;;;;;;;5044940;28;20415;-58
2022/09/12 00:51:42;;;;;;;;;;;;;;;;;;5045013;28;19920;-58
2022/09/12 00:54:08;;;;;;;;;;;;;;;;;;5044897;28;19913;-58
2022/09/12 00:56:34;;;;;;;;;;;;;;;;;;5045408;28;19996;-57
2022/09/12 00:59:00;;;;;;;;;;;;;;;;;;5044906;28;19920;-58
2022/09/12 01:01:26;;;;;;;;;;;;;;;;;;5044535;28;19913;-57
2022/09/12 01:03:52;;;;;;;;;;;;;;;;;;5044638;28;19909;-57
2022/09/12 01:06:18;;;;;;;;;;;;;;;;;;5045219;28;19909;-58
2022/09/12 01:08:44;;;;;;;;;;;;;;;;;;5047994;28;20043;-57
2022/09/12 01:11:10;;;;;;;;;;;;;;;;;;5048674;28;19917;-56
2022/09/12 01:13:36;;;;;;;;;;;;;;;;;;5048935;28;20423;-57
2022/09/12 01:16:02;;;;;;;;;;;;;;;;;;5048301;28;19916;-57
2022/09/12 01:18:28;;;;;;;;;;;;;;;;;;5048329;28;20327;-57
2022/09/12 01:20:54;;;;;;;;;;;;;;;;;;5048173;28;19908;-57
2022/09/12 01:23:20;;;;;;;;;;;;;;;;;;5048464;28;19966;-57
2022/09/12 01:25:46;;;;;;;;;;;;;;;;;;5048245;28;20383;-58
2022/09/12 01:28:11;;;;;;;;;;;;;;;;;;5048493;28;19913;-57
2022/09/12 01:30:37;;;;;;;;;;;;;;;;;;5048293;28;19908;-58
2022/09/12 01:33:03;;;;;;;;;;;;;;;;;;5048915;28;19948;-57
2022/09/12 01:35:30;;;;;;;;;;;;;;;;;;5048191;28;19939;-57
2022/09/12 01:37:55;;;;;;;;;;;;;;;;;;5047823;28;19917;-57
2022/09/12 01:40:22;;;;;;;;;;;;;;;;;;5047948;28;20388;-57
2022/09/12 01:42:48;;;;;;;;;;;;;;;;;;5047756;28;19957;-57
2022/09/12 01:45:14;;;;;;;;;;;;;;;;;;5047835;28;19909;-57
2022/09/12 01:47:40;;;;;;;;;;;;;;;;;;5047474;28;19920;-57
2022/09/12 01:50:07;;;;;;;;;;;;;;;;;;5048324;28;20486;-57
2022/09/12 01:52:33;;;;;;;;;;;;;;;;;;5047856;28;19913;-57
2022/09/12 01:54:59;;;;;;;;;;;;;;;;;;5047392;28;19916;-57
2022/09/12 01:57:25;;;;;;;;;;;;;;;;;;5047868;28;19916;-57
2022/09/12 01:59:51;;;;;;;;;;;;;;;;;;5047111;28;19955;-58
2022/09/12 02:02:17;;;;;;;;;;;;;;;;;;5047604;28;19920;-57
2022/09/12 02:04:43;;;;;;;;;;;;;;;;;;5047247;28;19909;-58
2022/09/12 02:07:09;;;;;;;;;;;;;;;;;;5047420;28;19912;-57
2022/09/12 02:09:34;;;;;;;;;;;;;;;;;;5048081;28;19954;-57
2022/09/12 02:12:00;;;;;;;;;;;;;;;;;;5047350;28;19920;-57
2022/09/12 02:14:26;;;;;;;;;;;;;;;;;;5047673;28;19917;-57
2022/09/12 02:16:52;;;;;;;;;;;;;;;;;;5047059;28;19913;-57
2022/09/12 02:19:18;;;;;;;;;;;;;;;;;;5046616;28;19909;-57
2022/09/12 02:21:44;;;;;;;;;;;;;;;;;;5047136;28;19967;-57
2022/09/12 02:24:11;;;;;;;;;;;;;;;;;;5047352;28;19913;-57
2022/09/12 02:26:37;;;;;;;;;;;;;;;;;;5047739;28;19912;-57
2022/09/12 02:29:03;;;;;;;;;;;;;;;;;;5047436;28;19916;-58
2022/09/12 02:31:29;;;;;;;;;;;;;;;;;;5047142;28;19913;-57
2022/09/12 02:33:56;;;;;;;;;;;;;;;;;;5046889;28;19916;-57
2022/09/12 02:36:22;;;;;;;;;;;;;;;;;;5047064;28;19916;-57
2022/09/12 02:38:48;;;;;;;;;;;;;;;;;;5046809;28;19915;-57
2022/09/12 02:41:14;;;;;;;;;;;;;;;;;;5046987;28;19917;-57
2022/09/12 02:43:40;;;;;;;;;;;;;;;;;;5047081;28;19909;-58
2022/09/12 02:46:06;;;;;;;;;;;;;;;;;;5047514;28;20324;-57
2022/09/12 02:48:32;;;;;;;;;;;;;;;;;;5028674;28;20248;-58
2022/09/12 02:50:58;;;;;;;;;;;;;;;;;;5046822;28;20389;-57
2022/09/12 02:53:24;;;;;;;;;;;;;;;;;;5046724;28;19909;-57
2022/09/12 02:55:50;;;;;;;;;;;;;;;;;;5046954;28;20320;-57
2022/09/12 02:58:15;;;;;;;;;;;;;;;;;;5046580;28;20000;-58
2022/09/12 03:00:41;;;;;;;;;;;;;;;;;;5046215;28;20518;-57
2022/09/12 03:03:07;;;;;;;;;;;;;;;;;;5047176;28;19936;-58
2022/09/12 03:05:34;;;;;;;;;;;;;;;;;;5047177;28;20379;-58
2022/09/12 03:08:00;;;;;;;;;;;;;;;;;;5046554;28;19952;-57
2022/09/12 03:10:27;;;;;;;;;;;;;;;;;;5046583;28;20331;-57
2022/09/12 03:12:53;;;;;;;;;;;;;;;;;;5045911;28;19925;-57
2022/09/12 03:15:19;;;;;;;;;;;;;;;;;;5046340;28;19920;-57
2022/09/12 03:17:45;;;;;;;;;;;;;;;;;;5045835;28;19909;-57
2022/09/12 03:20:12;;;;;;;;;;;;;;;;;;5046016;28;20434;-57
2022/09/12 03:22:39;;;;;;;;;;;;;;;;;;5046461;28;20007;-58
2022/09/12 03:25:05;;;;;;;;;;;;;;;;;;5046702;28;19909;-58
2022/09/12 03:27:30;;;;;;;;;;;;;;;;;;5045954;28;19917;-57
2022/09/12 03:29:56;;;;;;;;;;;;;;;;;;5045081;28;20670;-58
2022/09/12 03:32:22;;;;;;;;;;;;;;;;;;5045705;28;19916;-57
2022/09/12 03:34:48;;;;;;;;;;;;;;;;;;5045864;28;19913;-58
2022/09/12 03:37:14;;;;;;;;;;;;;;;;;;5045856;28;20442;-58
2022/09/12 03:39:40;;;;;;;;;;;;;;;;;;5045600;28;19913;-57
2022/09/12 03:42:07;;;;;;;;;;;;;;;;;;5046354;28;19909;-57
2022/09/12 03:44:33;;;;;;;;;;;;;;;;;;5045856;28;19909;-57
2022/09/12 03:47:00;;;;;;;;;;;;;;;;;;5045386;28;20376;-57
2022/09/12 03:49:26;;;;;;;;;;;;;;;;;;5045449;28;19970;-57
2022/09/12 03:51:52;;;;;;;;;;;;;;;;;;5045464;28;19920;-57
2022/09/12 03:54:18;;;;;;;;;;;;;;;;;;5045505;28;20047;-57
2022/09/12 03:56:45;;;;;;;;;;;;;;;;;;5045156;28;19908;-57
2022/09/12 03:59:11;;;;;;;;;;;;;;;;;;5045308;28;19909;-57
2022/09/12 04:01:37;;;;;;;;;;;;;;;;;;5045834;28;19913;-57
2022/09/12 04:04:03;;;;;;;;;;;;;;;;;;5046242;28;19963;-58
2022/09/12 04:06:30;;;;;;;;;;;;;;;;;;5045434;28;19908;-57
2022/09/12 04:08:55;;;;;;;;;;;;;;;;;;5045149;28;19935;-57
2022/09/12 04:11:21;;;;;;;;;;;;;;;;;;5045341;28;20391;-57
2022/09/12 04:13:47;;;;;;;;;;;;;;;;;;5045038;28;20011;-57
2022/09/12 04:16:13;;;;;;;;;;;;;;;;;;5045072;28;20106;-57
2022/09/12 04:18:40;;;;;;;;;;;;;;;;;;5045058;28;19909;-58
2022/09/12 04:21:07;;;;;;;;;;;;;;;;;;5046031;28;19909;-57
2022/09/12 04:23:33;;;;;;;;;;;;;;;;;;5045525;28;20118;-58
2022/09/12 04:25:59;;;;;;;;;;;;;;;;;;5045476;28;19919;-57
2022/09/12 04:28:25;;;;;;;;;;;;;;;;;;5045049;28;20232;-57
2022/09/12 04:30:51;;;;;;;;;;;;;;;;;;5044661;28;20067;-57
2022/09/12 04:33:17;;;;;;;;;;;;;;;;;;5045082;28;19916;-57
2022/09/12 04:35:44;;;;;;;;;;;;;;;;;;5044747;28;19913;-57
2022/09/12 04:38:10;;;;;;;;;;;;;;;;;;5044992;28;20312;-57
2022/09/12 04:40:35;;;;;;;;;;;;;;;;;;5045143;28;20308;-57
2022/09/12 04:43:01;;;;;;;;;;;;;;;;;;5048311;28;19909;-57
2022/09/12 04:45:27;;;;;;;;;;;;;;;;;;5048983;28;19920;-57
2022/09/12 04:47:53;;;;;;;;;;;;;;;;;;5048975;28;20047;-57
2022/09/12 04:50:19;;;;;;;;;;;;;;;;;;5047419;28;20371;-58
2022/09/12 04:52:45;;;;;;;;;;;;;;;;;;5048805;28;19909;-58
2022/09/12 04:55:11;;;;;;;;;;;;;;;;;;5049384;28;20268;-57
2022/09/12 04:57:37;;;;;;;;;;;;;;;;;;5048960;28;19955;-57
2022/09/12 05:00:05;;;;;;;;;;;;;;;;;;5048564;28;19913;-57
2022/09/12 05:02:31;;;;;;;;;;;;;;;;;;5048954;28;19916;-57
2022/09/12 05:04:58;;;;;;;;;;;;;;;;;;5048707;28;19963;-57
2022/09/12 05:07:24;;;;;;;;;;;;;;;;;;5048685;28;20086;-58
2022/09/12 05:09:50;;;;;;;;;;;;;;;;;;5048127;28;19952;-58
2022/09/12 05:12:16;;;;;;;;;;;;;;;;;;5048684;28;19917;-58
2022/09/12 05:14:43;;;;;;;;;;;;;;;;;;5048684;28;20478;-58
2022/09/12 05:17:09;;;;;;;;;;;;;;;;;;5049309;28;19974;-58
2022/09/12 05:19:35;;;;;;;;;;;;;;;;;;5048714;28;19952;-58
2022/09/12 05:22:01;;;;;;;;;;;;;;;;;;5048684;28;19909;-58
2022/09/12 05:24:28;;;;;;;;;;;;;;;;;;5048799;28;19909;-58
2022/09/12 05:26:54;;;;;;;;;;;;;;;;;;5048189;28;19913;-58
2022/09/12 05:29:21;;;;;;;;;;;;;;;;;;5048203;28;19931;-58
2022/09/12 05:31:50;;;;;;;;;;;;;;;;;;5048073;28;19909;-58
2022/09/12 05:34:16;;;;;;;;;;;;;;;;;;5048335;28;19919;-58
2022/09/12 05:36:42;;;;;;;;;;;;;;;;;;5048576;28;19916;-57
2022/09/12 05:39:08;;;;;;;;;;;;;;;;;;5049001;28;19966;-58
2022/09/12 05:41:34;;;;;;;;;;;;;;;;;;5048018;28;19909;-58
2022/09/12 05:44:00;;;;;;;;;;;;;;;;;;5047644;28;19916;-58
2022/09/12 05:46:26;;;;;;;;;;;;;;;;;;5049070;28;20334;-57
2022/09/12 05:48:53;;;;;;;;;;;;;;;;;;5048656;28;19908;-57
2022/09/12 05:51:19;;;;;;;;;;;;;;;;;;5049163;28;20042;-58
2022/09/12 05:53:45;;;;;;;;;;;;;;;;;;5047396;28;19916;-58
2022/09/12 05:56:11;;;;;;;;;;;;;;;;;;5042505;28;19959;-58
2022/09/12 05:58:37;;;;;;;;;;;;;;;;;;5028457;28;19916;-58
2022/09/12 06:01:04;;;;;;;;;;;;;;;;;;5043462;28;19919;-57
2022/09/12 06:03:30;;;;;;;;;;;;;;;;;;5049189;28;19995;-58
2022/09/12 06:05:56;;;;;;;;;;;;;;;;;;5048718;28;20028;-58
2022/09/12 06:08:22;;;;;;;;;;;;;;;;;;5048887;28;20400;-58
2022/09/12 06:10:48;;;;;;;;;;;;;;;;;;5048509;28;19909;-58
2022/09/12 06:13:14;;;;;;;;;;;;;;;;;;5048599;28;19917;-58
2022/09/12 06:15:40;;;;;;;;;;;;;;;;;;5049245;28;20015;-58
2022/09/12 06:18:06;;;;;;;;;;;;;;;;;;5049146;28;20356;-58
2022/09/12 06:20:32;;;;;;;;;;;;;;;;;;5048883;28;19908;-58
2022/09/12 06:22:58;;;;;;;;;;;;;;;;;;5048878;28;19913;-58
2022/09/12 06:25:24;;;;;;;;;;;;;;;;;;5048991;28;19971;-58
2022/09/12 06:27:50;;;;;;;;;;;;;;;;;;5048265;28;19916;-58
2022/09/12 06:30:16;;;;;;;;;;;;;;;;;;5048643;28;19909;-58
2022/09/12 06:32:42;;;;;;;;;;;;;;;;;;5049136;28;19909;-58
2022/09/12 06:35:08;;;;;;;;;;;;;;;;;;5048560;28;19928;-57
2022/09/12 06:37:34;;;;;;;;;;;;;;;;;;5048326;28;19977;-58
2022/09/12 06:40:00;;;;;;;;;;;;;;;;;;5048275;28;19916;-58
2022/09/12 06:42:27;;;;;;;;;;;;;;;;;;5047398;28;19944;-58
2022/09/12 06:44:54;;;;;;;;;;;;;;;;;;5046583;28;19962;-58
2022/09/12 06:47:20;;;;;;;;;;;;;;;;;;5046955;28;20392;-58
2022/09/12 06:49:46;;;;;;;;;;;;;;;;;;5045422;28;19948;-58
2022/09/12 06:52:12;;;;;;;;;;;;;;;;;;5046697;28;19950;-58
2022/09/12 06:54:38;;;;;;;;;;;;;;;;;;5044591;28;19946;-58
2022/09/12 06:57:05;;;;;;;;;;;;;;;;;;5046240;28;19919;-58
2022/09/12 06:59:32;;;;;;;;;;;;;;;;;;5043623;28;19913;-58
2022/09/12 07:01:57;;;;;;;;;;;;;;;;;;5041190;28;19921;-58
2022/09/12 07:04:24;;;;;;;;;;;;;;;;;;5046119;28;19917;-58
2022/09/12 07:06:50;;;;;;;;;;;;;;;;;;5044085;28;20191;-58
2022/09/12 07:09:16;;;;;;;;;;;;;;;;;;5047083;28;19913;-58
2022/09/12 07:11:42;;;;;;;;;;;;;;;;;;5040870;28;20312;-58
2022/09/12 07:14:08;;;;;;;;;;;;;;;;;;5045264;28;19916;-57
2022/09/12 07:16:35;;;;;;;;;;;;;;;;;;5045834;28;20276;-57
2022/09/12 07:19:02;;;;;;;;;;;;;;;;;;5045424;28;19909;-58
2022/09/12 07:21:29;;;;;;;;;;;;;;;;;;5045374;28;19908;-58
2022/09/12 07:23:58;;;;;;;;;;;;;;;;;;5045837;28;19913;-58
2022/09/12 07:26:24;;;;;;;;;;;;;;;;;;5045880;28;20418;-58
2022/09/12 07:28:54;;;;;;;;;;;;;;;;;;5045068;28;19912;-58
2022/09/12 07:31:20;;;;;;;;;;;;;;;;;;5045301;28;20347;-58
2022/09/12 07:33:46;;;;;;;;;;;;;;;;;;5044759;28;20015;-58
2022/09/12 07:36:12;;;;;;;;;;;;;;;;;;5045225;28;19915;-58
2022/09/12 07:38:38;;;;;;;;;;;;;;;;;;5045054;28;19909;-58
2022/09/12 07:41:04;;;;;;;;;;;;;;;;;;5045220;28;20462;-58
2022/09/12 07:43:30;;;;;;;;;;;;;;;;;;5045004;28;19920;-58
2022/09/12 07:45:56;;;;;;;;;;;;;;;;;;5045425;28;19909;-58
2022/09/12 07:48:22;;;;;;;;;;;;;;;;;;5044951;28;19952;-58
2022/09/12 07:50:49;;;;;;;;;;;;;;;;;;5044616;28;19927;-58
2022/09/12 07:53:16;;;;;;;;;;;;;;;;;;5045026;28;19913;-58
2022/09/12 07:55:42;;;;;;;;;;;;;;;;;;5044307;28;19923;-58
2022/09/12 07:58:07;;;;;;;;;;;;;;;;;;5044806;28;19995;-58
2022/09/12 08:00:36;;;;;;;;;;;;;;;;;;5044770;28;20372;-58
2022/09/12 08:03:03;;;;;;;;;;;;;;;;;;5044627;28;19916;-58
2022/09/12 08:05:29;;;;;;;;;;;;;;;;;;5044535;28;20348;-58
2022/09/12 08:07:55;;;;;;;;;;;;;;;;;;5045240;28;19919;-58
2022/09/12 08:10:21;;;;;;;;;;;;;;;;;;5044766;28;19908;-58
2022/09/12 08:12:47;;;;;;;;;;;;;;;;;;5043921;28;20543;-58
2022/09/12 08:15:14;;;;;;;;;;;;;;;;;;5044917;28;19916;-58
2022/09/12 08:17:40;;;;;;;;;;;;;;;;;;5043449;28;19919;-58
2022/09/12 08:20:06;;;;;;;;;;;;;;;;;;5044587;28;19908;-58
2022/09/12 08:22:32;;;;;;;;;;;;;;;;;;5044536;28;19908;-58
2022/09/12 08:24:58;;;;;;;;;;;;;;;;;;5044191;28;19909;-58
2022/09/12 08:27:24;;;;;;;;;;;;;;;;;;5044993;28;20295;-58
2022/09/12 08:29:50;;;;;;;;;;;;;;;;;;5044266;28;20693;-58
2022/09/12 08:32:15;;;;;;;;;;;;;;;;;;5044352;28;19948;-58
2022/09/12 08:34:41;;;;;;;;;;;;;;;;;;5044630;28;19912;-58
2022/09/12 08:37:08;;;;;;;;;;;;;;;;;;5044471;28;19987;-58
2022/09/12 08:39:35;;;;;;;;;;;;;;;;;;5044225;28;19963;-58
2022/09/12 08:42:01;;;;;;;;;;;;;;;;;;5044220;28;19909;-58
2022/09/12 08:44:28;;;;;;;;;;;;;;;;;;5044271;28;20000;-58
2022/09/12 08:46:56;;;;;;;;;;;;;;;;;;5044020;28;20203;-58
2022/09/12 08:49:22;;;;;;;;;;;;;;;;;;5045711;28;20217;-58
2022/09/12 08:51:48;;;;;;;;;;;;;;;;;;5043633;28;19960;-58
2022/09/12 08:54:14;;;;;;;;;;;;;;;;;;5044417;28;19956;-58
2022/09/12 08:56:40;;;;;;;;;;;;;;;;;;5043821;28;19963;-58
2022/09/12 08:59:07;;;;;;;;;;;;;;;;;;5044637;28;20311;-58
2022/09/12 09:01:33;;;;;;;;;;;;;;;;;;5044090;28;20750;-58
2022/09/12 09:04:00;;;;;;;;;;;;;;;;;;5044382;28;19913;-58
2022/09/12 09:06:26;;;;;;;;;;;;;;;;;;5044153;28;19908;-58
2022/09/12 09:08:52;;;;;;;;;;;;;;;;;;5043930;28;19916;-58
2022/09/12 09:11:18;;;;;;;;;;;;;;;;;;5044297;28;19931;-58
2022/09/12 09:16:29;;;;;;;;;;;;;;;;;;5044164;28;20649;-58
2022/09/12 09:18:55;;;;;;;;;;;;;;;;;;5043544;28;19920;-58
2022/09/12 09:21:21;;;;;;;;;;;;;;;;;;5044034;28;20295;-58
2022/09/12 09:23:47;;;;;;;;;;;;;;;;;;5043618;28;19908;-58
2022/09/12 09:26:14;;;;;;;;;;;;;;;;;;5043641;28;19909;-58
2022/09/12 09:28:39;;;;;;;;;;;;;;;;;;5046164;28;20069;-58
2022/09/12 09:31:05;;;;;;;;;;;;;;;;;;5048127;28;20000;-58
2022/09/12 09:33:31;;;;;;;;;;;;;;;;;;5047529;28;19916;-58
2022/09/12 09:35:57;;;;;;;;;;;;;;;;;;5047080;28;19913;-58
2022/09/12 09:38:23;;;;;;;;;;;;;;;;;;5047781;28;20412;-58
2022/09/12 09:40:49;;;;;;;;;;;;;;;;;;5046878;28;19916;-58
2022/09/12 09:43:15;;;;;;;;;;;;;;;;;;5047156;28;19919;-58
2022/09/12 09:45:41;;;;;;;;;;;;;;;;;;5047302;28;19908;-58
2022/09/12 09:48:08;;;;;;;;;;;;;;;;;;5047941;28;19944;-58
2022/09/12 09:50:34;;;;;;;;;;;;;;;;;;5047469;28;19982;-58
2022/09/12 09:53:00;;;;;;;;;;;;;;;;;;5047083;28;19925;-58
2022/09/12 09:55:25;;;;;;;;;;;;;;;;;;5046776;28;19917;-58
2022/09/12 09:57:52;;;;;;;;;;;;;;;;;;5046710;28;19908;-58
2022/09/12 10:00:18;;;;;;;;;;;;;;;;;;5047205;28;19991;-58
2022/09/12 10:02:43;;;;;;;;;;;;;;;;;;5046649;28;20011;-58
2022/09/12 10:05:10;;;;;;;;;;;;;;;;;;5047102;28;20265;-58
2022/09/12 10:07:37;;;;;;;;;;;;;;;;;;5047489;28;19916;-58
2022/09/12 10:10:03;;;;;;;;;;;;;;;;;;5046810;28;20094;-58
2022/09/12 10:12:29;;;;;;;;;;;;;;;;;;5046441;28;19970;-58
2022/09/12 10:14:55;;;;;;;;;;;;;;;;;;5046386;28;20272;-58
2022/09/12 10:17:22;;;;;;;;;;;;;;;;;;5046933;28;20023;-58
2022/09/12 10:19:48;;;;;;;;;;;;;;;;;;5046362;28;19909;-59
2022/09/12 10:22:13;;;;;;;;;;;;;;;;;;5046689;28;19916;-58
2022/09/12 10:24:40;;;;;;;;;;;;;;;;;;5046624;28;20122;-58
2022/09/12 10:27:07;;;;;;;;;;;;;;;;;;5046793;28;19913;-58
2022/09/12 10:29:33;;;;;;;;;;;;;;;;;;5046329;28;19927;-58
2022/09/12 10:31:59;;;;;;;;;;;;;;;;;;5046329;28;19913;-58
2022/09/12 10:34:25;;;;;;;;;;;;;;;;;;5046329;28;19991;-59
2022/09/12 10:36:50;;;;;;;;;;;;;;;;;;5046161;28;19921;-58
2022/09/12 10:39:17;;;;;;;;;;;;;;;;;;5045539;28;19916;-59
2022/09/12 10:41:43;;;;;;;;;;;;;;;;;;5045727;28;19916;-58
2022/09/12 10:44:09;;;;;;;;;;;;;;;;;;5047266;28;19913;-58
2022/09/12 10:46:35;;;;;;;;;;;;;;;;;;5046479;28;19956;-58
2022/09/12 10:49:01;;;;;;;;;;;;;;;;;;5046076;28;19948;-58
2022/09/12 10:51:27;;;;;;;;;;;;;;;;;;5028515;28;19909;-59
2022/09/12 10:53:53;;;;;;;;;;;;;;;;;;5045847;28;20008;-59
2022/09/12 10:56:19;;;;;;;;;;;;;;;;;;5044922;28;19913;-59
2022/09/12 10:58:45;;;;;;;;;;;;;;;;;;5047263;28;20011;-58
2022/09/12 11:01:11;;;;;;;;;;;;;;;;;;5048718;28;19912;-60
2022/09/12 11:03:37;;;;;;;;;;;;;;;;;;5030364;28;19920;-59
2022/09/12 11:06:02;;;;;;;;;;;;;;;;;;5047881;28;19909;-68
2022/09/12 11:08:28;;;;;;;;;;;;;;;;;;5046957;28;20543;-68
2022/09/12 11:10:55;;;;;;;;;;;;;;;;;;5047097;28;19971;-67
2022/09/12 11:13:21;;;;;;;;;;;;;;;;;;5028549;28;19942;-67
2022/09/12 11:15:47;;;;;;;;;;;;;;;;;;5027580;28;19913;-65
2022/09/12 11:18:13;;;;;;;;;;;;;;;;;;5045899;28;19913;-68
2022/09/12 11:20:39;;;;;;;;;;;;;;;;;;5045500;28;19931;-65
2022/09/12 11:23:06;;;;;;;;;;;;;;;;;;5046110;28;19916;-66
2022/09/12 11:25:32;;;;;;;;;;;;;;;;;;5045046;28;20438;-68
2022/09/12 11:27:59;;;;;;;;;;;;;;;;;;5045255;28;19962;-67
2022/09/12 11:30:26;;;;;;;;;;;;;;;;;;5045518;28;19909;-67
2022/09/12 11:32:51;;;;;;;;;;;;;;;;;;5044916;28;19913;-66
2022/09/12 11:35:17;;;;;;;;;;;;;;;;;;5027393;28;20368;-63
2022/09/12 11:37:44;;;;;;;;;;;;;;;;;;5026745;28;19944;-64
2022/09/12 11:40:11;;;;;;;;;;;;;;;;;;5045214;28;19912;-65
2022/09/12 11:42:38;;;;;;;;;;;;;;;;;;5027776;28;20396;-69
2022/09/12 11:45:05;;;;;;;;;;;;;;;;;;5027988;28;19959;-73
2022/09/12 11:47:30;;;;;;;;;;;;;;;;;;5044629;28;20304;-71
2022/09/12 11:49:56;;;;;;;;;;;;;;;;;;5044052;28;20016;-60
2022/09/12 11:52:22;;;;;;;;;;;;;;;;;;5044120;28;19961;-61
2022/09/12 11:54:49;;;;;;;;;;;;;;;;;;5025278;28;20412;-61
2022/09/12 11:57:15;;;;;;;;;;;;;;;;;;5044422;28;19916;-61
2022/09/12 11:59:41;;;;;;;;;;;;;;;;;;5044710;28;19913;-61
2022/09/12 12:02:08;;;;;;;;;;;;;;;;;;5027684;28;19909;-61
2022/09/12 12:04:34;;;;;;;;;;;;;;;;;;5043394;28;20011;-60
2022/09/12 12:07:00;;;;;;;;;;;;;;;;;;5042597;28;20332;-61
2022/09/12 12:09:27;;;;;;;;;;;;;;;;;;5042950;28;19920;-61
2022/09/12 12:11:53;;;;;;;;;;;;;;;;;;5041743;28;20343;-61
2022/09/12 12:14:18;;;;;;;;;;;;;;;;;;5042997;28;19916;-61
2022/09/12 12:16:44;;;;;;;;;;;;;;;;;;5041116;28;20296;-61
2022/09/12 12:19:10;;;;;;;;;;;;;;;;;;5025191;28;20405;-60
2022/09/12 12:21:36;;;;;;;;;;;;;;;;;;5044958;28;19944;-60
2022/09/12 12:24:04;;;;;;;;;;;;;;;;;;5043793;28;19965;-59
2022/09/12 12:26:30;;;;;;;;;;;;;;;;;;5024400;28;19931;-58
2022/09/12 12:28:56;;;;;;;;;;;;;;;;;;5042739;28;19916;-59
2022/09/12 12:31:22;;;;;;;0.30;0.30;;;;;;;;;;5041786;28;20462;-59
2022/09/12 12:33:48;;;;;;;0.30;0.30;;;;;;;;;;5042698;28;20040;-59
2022/09/12 12:36:32;;;;;;;0.20;0.20;;;;;;;;;;5043124;28;20021;-59
2022/09/12 12:38:58;;;;;;;;;;;;;;;;;;5043375;28;20438;-59
2022/09/12 12:41:24;;;;;;;0.68;0.47;;;;;;;;;;5044762;28;19912;-58
2022/09/12 12:43:51;;;;;;;0.30;0.30;;;;;;;;;;5043939;28;20393;-59
2022/09/12 12:46:18;;;;;;;0.20;0.20;;;;;;;;;;5032115;28;20040;-58
2022/09/12 12:48:47;;;;;;;0.20;0.20;;;;;;;;;;5044560;28;20044;-58
2022/09/12 12:51:27;;;;;;;0.30;0.30;;;;;;;;;;5043396;28;20033;-58
2022/09/12 12:53:53;;;;;;;0.40;0.30;;;;;;;;;;5044374;28;20049;-60
2022/09/12 12:56:26;;;;;;;0.77;0.50;;;;;;;;;;5038954;28;20075;-58
2022/09/12 12:58:58;;;;;;;0.63;0.45;;;;;;;;;;5028405;28;20040;-58
2022/09/12 13:01:24;;;;;;;0.63;0.40;;;;;;;;;;5044792;28;20032;-58
2022/09/12 13:03:53;;;;;;;0.30;0.30;;;;;;;;;;5047492;28;20094;-59
2022/09/12 13:06:28;;;;;;;0.50;0.32;;;;;;;;;;5048277;28;20064;-58
2022/09/12 13:08:58;;;;;;;0.30;0.30;;;;;;;;;;5047581;28;20033;-58
2022/09/12 13:11:32;;;;;;;0.30;0.30;;;;;;;;;;5047949;28;20029;-58
2022/09/12 13:14:00;;;;;;;0.30;0.30;;;;;;;;;;5048773;28;20025;-58
2022/09/12 13:16:30;;;;;;;0.20;0.20;;;;;;;;;;5047702;28;20036;-59
2022/09/12 13:18:57;;;;;;;0.30;0.30;;;;;;;;;;5047845;28;20070;-58
2022/09/12 13:21:23;;;;;;;0.22;0.22;;;;;;;;;;5048233;28;20037;-58
2022/09/12 13:24:01;;;;;;;0.30;0.25;;;;;;;;;;5046499;28;20021;-59
2022/09/12 13:26:32;;;;;;;0.80;0.30;;;;;;;;;;5047681;28;20063;-59
2022/09/12 13:29:17;;;;;;;0.30;0.30;;;;;;;;;;5048200;28;20487;-58
2022/09/12 13:31:46;;;;;;;0.30;0.30;;;;;;;;;;5046824;28;20492;-59
2022/09/12 13:34:16;;;;;;;0.28;0.28;;;;;;;;;;5048870;28;20025;-59
2022/09/12 13:36:49;;;;;;;0.30;0.30;;;;;;;;;;5046454;28;20412;-58
2022/09/12 13:39:18;;;;;;;0.30;0.30;;;;;;;;;;5048606;28;20028;-59
2022/09/12 13:42:02;;;;;;;0.40;0.30;;;;;;;;;;5046499;28;20441;-59
2022/09/12 13:44:29;;;;;;;0.20;0.20;;;;;;;;;;5046729;28;20063;-58
2022/09/12 13:46:59;;;;;;;0.47;0.30;;;;;;;;;;5046376;28;20091;-58
2022/09/12 13:49:31;;;;;;;0.40;0.40;;;;;;;;;;5047216;28;20090;-59
2022/09/12 13:52:08;;;;;;;0.20;0.20;;;;;;;;;;5028454;28;20071;-59
2022/09/12 13:54:36;;;;;;;0.40;0.40;;;;;;;;;;5050672;28;20562;-59
2022/09/12 13:57:03;;;;;;;0.32;0.32;;;;;;;;;;5044484;28;20034;-59
2022/09/12 13:59:37;;;;;;;0.30;0.30;;;;;;;;;;5047767;28;20033;-59
2022/09/12 14:02:16;;;;;;;0.40;0.30;;;;;;;;;;5046016;28;20057;-60
2022/09/12 14:07:31;;;;;;;0.35;0.35;;;;;;;;;;5047099;28;20095;-59
2022/09/12 14:09:58;;;;;;;0.22;0.22;;;;;;;;;;5046962;28;20040;-59
2022/09/12 14:12:26;;;;;;;0.40;0.40;;;;;;;;;;5046574;28;20055;-59
2022/09/12 14:14:52;;;;;;;0.55;0.40;;;;;;;;;;5046589;28;20076;-59
2022/09/12 14:17:26;;;;;;;0.30;0.30;;;;;;;;;;5046903;28;20029;-59
2022/09/12 14:19:53;;;;;;;0.20;0.20;;;;;;;;;;5047000;28;20053;-59
2022/09/12 14:22:19;;;;;;;0.20;0.20;;;;;;;;;;5046369;28;20029;-60
2022/09/12 14:24:49;;;;;;;0.73;0.30;;;;;;;;;;5047392;28;20037;-59
2022/09/12 14:27:17;;;;;;;0.57;0.30;;;;;;;;;;5045942;28;20029;-59
2022/09/12 14:29:43;;;;;;;0.30;0.30;;;;;;;;;;5046684;28;20053;-59
2022/09/12 14:32:18;;;;;;;0.30;0.30;;;;;;;;;;5044843;28;20028;-60
2022/09/12 14:35:03;;;;;;;0.30;0.30;;;;;;;;;;5047097;28;20484;-60
2022/09/12 14:37:30;;;;;;;0.20;0.20;;;;;;;;;;5041610;28;20071;-59
2022/09/12 14:39:57;;;;;;;0.73;0.40;;;;;;;;;;5046491;28;20021;-59
2022/09/12 14:42:26;;;;;;;0.52;0.52;;;;;;;;;;5045422;28;20478;-59
2022/09/12 14:44:55;;;;;;;0.30;0.30;;;;;;;;;;5034178;28;20492;-60
2022/09/12 14:47:23;;;;;;;0.22;0.20;;;;;;;;;;5046002;28;20029;-59
2022/09/12 14:49:50;;;;;;;0.20;0.20;;;;;;;;;;5046945;28;20036;-60
2022/09/12 14:52:24;;;;;;;0.22;0.22;;;;;;;;;;5045367;28;20591;-59
2022/09/12 14:55:00;;;;;;;0.20;0.20;;;;;;;;;;5046831;28;20028;-60
2022/09/12 14:57:32;;;;;;;0.30;0.30;;;;;;;;;;5043014;28;20444;-59
2022/09/12 15:00:13;;;;;;;0.30;0.30;;;;;;;;;;5045016;28;20044;-60
2022/09/12 15:02:40;;;;;;;0.65;0.30;;;;;;;;;;5045517;28;20025;-59
2022/09/12 15:05:06;;;;;;;1.00;0.47;;;;;;;;;;5047506;28;20515;-60
2022/09/12 15:07:52;;;;;;;0.30;0.30;;;;;;;;;;5045667;28;20119;-59
2022/09/12 15:10:44;;;;;;;0.38;0.38;;;;;;;;;;5046392;28;20025;-60
2022/09/12 15:13:13;;;;;;;0.43;0.40;;;;;;;;;;5042111;28;20048;-60
2022/09/12 15:15:40;;;;;;;0.50;0.50;;;;;;;;;;5046388;28;20029;-59
2022/09/12 15:18:06;;;;;;;0.40;0.40;;;;;;;;;;5045874;28;20029;-60
2022/09/12 15:20:33;;;;;;;0.30;0.30;;;;;;;;;;5045502;28;20492;-60
2022/09/12 15:22:59;;;;;;;0.70;0.40;;;;;;;;;;5045296;28;20043;-60
2022/09/12 15:25:26;;;;;;;0.57;0.40;;;;;;;;;;5046344;28;20029;-60
2022/09/12 15:27:52;;;;;;;0.50;0.43;;;;;;;;;;5045486;28;20423;-60
2022/09/12 15:30:18;;;;;;;0.40;0.40;;;;;;;;;;5045936;28;20029;-60
2022/09/12 15:32:45;;;;;;;1.90;0.50;;;;;;;;;;5044688;28;20028;-60
2022/09/12 15:35:22;;;;;;;0.40;0.32;;;;;;;;;;5046089;28;20124;-60
2022/09/12 15:37:48;;;;;;;0.32;0.32;;;;;;;;;;5044283;28;20029;-59
2022/09/12 15:40:15;;;;;;;0.47;0.40;;;;;;;;;;5046294;28;20055;-60
2022/09/12 15:42:41;;;;;;;0.68;0.40;;;;;;;;;;5044621;28;20040;-60
2022/09/12 15:45:27;;;;;;;0.40;0.40;;;;;;;;;;5046083;28;20048;-59
2022/09/12 15:47:53;;;;;;;0.88;0.40;;;;;;;;;;5045081;28;20037;-59
2022/09/12 15:50:20;;;;;;;0.65;0.45;;;;;;;;;;5046117;28;20052;-59
2022/09/12 15:52:46;;;;;;;0.95;0.65;;;;;;;;;;5044030;28;20565;-60
2022/09/12 15:55:18;;;;;;;0.45;0.45;;;;;;;;;;5046048;28;20033;-60
2022/09/12 15:57:44;;;;;;;1.65;0.30;;;;;;;;;;5044210;28;20522;-59
2022/09/12 16:00:10;;;;;;;0.40;0.40;;;;;;;;;;5044012;28;20033;-60
2022/09/12 16:02:36;;;;;;;0.30;0.30;;;;;;;;;;5027200;28;20025;-60
2022/09/12 16:05:03;;;;;;;0.40;0.40;;;;;;;;;;5045876;28;20113;-60
2022/09/12 16:07:29;;;;;;;0.38;0.38;;;;;;;;;;5043452;28;20033;-60
2022/09/12 16:09:55;;;;;;;0.35;0.35;;;;;;;;;;5045534;28;20103;-59
2022/09/12 16:12:21;;;;;;;0.50;0.50;;;;;;;;;;5044337;28;20088;-60
2022/09/12 16:14:47;;;;;;;0.40;0.40;;;;;;;;;;5043763;28;20454;-60
2022/09/12 16:17:13;;;;;;;0.40;0.38;;;;;;;;;;5042663;28;20040;-60